sensor_id;sensor_type;location;lat;lon;timestamp;temperature;humidity
14798;DHT22;7490;63.708;20.368;2023-07-16T00:01:29;16.70;99.90
14798;DHT22;7490;63.708;20.368;2023-07-16T00:03:55;16.70;99.90
14798;DHT22;7490;63.708;20.368;2023-07-16T00:06:20;16.70;99.90
14798;DHT22;7490;63.708;20.368;2023-07-16T00:08:46;16.80;99.90
14798;DHT22;7490;63.708;20.368;2023-07-16T00:11:12;16.90;99.90
14798;DHT22;7490;63.708;20.368;2023-07-16T00:13:37;16.90;99.90
14798;DHT22;7490;63.708;20.368;2023-07-16T00:16:03;17.10;99.90
14798;DHT22;7490;63.708;20.368;2023-07-16T00:18:29;17.10;99.90
14798;DHT22;7490;63.708;20.368;2023-07-16T00:20:55;17.20;99.90
14798;DHT22;7490;63.708;20.368;2023-07-16T00:23:20;17.20;99.90
14798;DHT22;7490;63.708;20.368;2023-07-16T00:25:49;17.30;99.90
14798;DHT22;7490;63.708;20.368;2023-07-16T00:28:14;17.30;99.90
14798;DHT22;7490;63.708;20.368;2023-07-16T00:30:40;17.30;99.90
14798;DHT22;7490;63.708;20.368;2023-07-16T00:33:06;17.30;99.90
14798;DHT22;7490;63.708;20.368;2023-07-16T00:35:32;17.30;99.90
14798;DHT22;7490;63.708;20.368;2023-07-16T00:38:00;17.30;99.90
14798;DHT22;7490;63.708;20.368;2023-07-16T00:40:26;17.40;99.90
14798;DHT22;7490;63.708;20.368;2023-07-16T00:42:51;17.40;99.90
14798;DHT22;7490;63.708;20.368;2023-07-16T00:45:17;17.40;99.90
14798;DHT22;7490;63.708;20.368;2023-07-16T00:47:44;17.40;99.90
14798;DHT22;7490;63.708;20.368;2023-07-16T00:50:13;17.40;99.90
14798;DHT22;7490;63.708;20.368;2023-07-16T00:52:39;17.40;99.90
14798;DHT22;7490;63.708;20.368;2023-07-16T00:55:06;17.40;99.90
14798;DHT22;7490;63.708;20.368;2023-07-16T00:57:33;17.40;99.90
14798;DHT22;7490;63.708;20.368;2023-07-16T00:59:59;17.40;99.90
14798;DHT22;7490;63.708;20.368;2023-07-16T01:02:25;17.40;99.90
14798;DHT22;7490;63.708;20.368;2023-07-16T01:04:51;17.40;99.90
14798;DHT22;7490;63.708;20.368;2023-07-16T01:07:18;17.40;99.90
14798;DHT22;7490;63.708;20.368;2023-07-16T01:09:46;17.40;99.90
14798;DHT22;7490;63.708;20.368;2023-07-16T01:12:12;17.50;99.90
14798;DHT22;7490;63.708;20.368;2023-07-16T01:14:40;17.50;99.90
14798;DHT22;7490;63.708;20.368;2023-07-16T01:17:07;17.50;99.90
14798;DHT22;7490;63.708;20.368;2023-07-16T01:19:34;17.60;99.90
14798;DHT22;7490;63.708;20.368;2023-07-16T01:30:04;17.70;99.90
14798;DHT22;7490;63.708;20.368;2023-07-16T01:32:35;17.80;99.90
14798;DHT22;7490;63.708;20.368;2023-07-16T01:35:02;17.80;99.90
14798;DHT22;7490;63.708;20.368;2023-07-16T01:37:28;17.80;99.90
14798;DHT22;7490;63.708;20.368;2023-07-16T01:39:54;17.80;99.90
14798;DHT22;7490;63.708;20.368;2023-07-16T01:42:22;17.90;99.90
14798;DHT22;7490;63.708;20.368;2023-07-16T01:44:48;17.90;99.90
14798;DHT22;7490;63.708;20.368;2023-07-16T01:47:23;17.90;99.90
14798;DHT22;7490;63.708;20.368;2023-07-16T01:49:50;17.90;99.90
14798;DHT22;7490;63.708;20.368;2023-07-16T01:52:16;18.00;99.90
14798;DHT22;7490;63.708;20.368;2023-07-16T01:54:42;18.00;99.90
14798;DHT22;7490;63.708;20.368;2023-07-16T01:57:08;18.10;99.90
14798;DHT22;7490;63.708;20.368;2023-07-16T01:59:34;18.10;99.90
14798;DHT22;7490;63.708;20.368;2023-07-16T02:02:00;18.10;99.90
14798;DHT22;7490;63.708;20.368;2023-07-16T02:04:25;18.00;99.90
14798;DHT22;7490;63.708;20.368;2023-07-16T02:06:51;18.20;99.90
14798;DHT22;7490;63.708;20.368;2023-07-16T02:09:17;18.20;99.90
14798;DHT22;7490;63.708;20.368;2023-07-16T02:11:42;18.20;99.90
14798;DHT22;7490;63.708;20.368;2023-07-16T02:14:09;18.30;99.90
14798;DHT22;7490;63.708;20.368;2023-07-16T02:16:34;18.30;99.90
14798;DHT22;7490;63.708;20.368;2023-07-16T02:19:00;18.30;99.90
14798;DHT22;7490;63.708;20.368;2023-07-16T02:21:25;18.40;99.90
14798;DHT22;7490;63.708;20.368;2023-07-16T02:23:51;18.40;99.90
14798;DHT22;7490;63.708;20.368;2023-07-16T02:26:17;18.50;99.90
14798;DHT22;7490;63.708;20.368;2023-07-16T02:28:42;18.50;99.90
14798;DHT22;7490;63.708;20.368;2023-07-16T02:31:08;18.50;99.90
14798;DHT22;7490;63.708;20.368;2023-07-16T02:33:34;18.60;99.90
14798;DHT22;7490;63.708;20.368;2023-07-16T02:35:59;18.70;99.90
14798;DHT22;7490;63.708;20.368;2023-07-16T02:38:25;18.70;99.90
14798;DHT22;7490;63.708;20.368;2023-07-16T02:40:51;18.80;99.90
14798;DHT22;7490;63.708;20.368;2023-07-16T02:43:17;18.80;99.90
14798;DHT22;7490;63.708;20.368;2023-07-16T02:45:42;18.90;99.90
14798;DHT22;7490;63.708;20.368;2023-07-16T02:48:08;18.90;99.90
14798;DHT22;7490;63.708;20.368;2023-07-16T02:50:35;18.90;99.90
14798;DHT22;7490;63.708;20.368;2023-07-16T02:53:01;18.90;99.90
14798;DHT22;7490;63.708;20.368;2023-07-16T02:55:27;18.90;99.90
14798;DHT22;7490;63.708;20.368;2023-07-16T02:57:53;18.90;99.90
14798;DHT22;7490;63.708;20.368;2023-07-16T03:00:18;19.00;99.90
14798;DHT22;7490;63.708;20.368;2023-07-16T03:02:44;19.00;99.90
14798;DHT22;7490;63.708;20.368;2023-07-16T03:05:10;19.00;99.90
14798;DHT22;7490;63.708;20.368;2023-07-16T03:07:36;19.00;99.90
14798;DHT22;7490;63.708;20.368;2023-07-16T03:10:01;19.00;99.90
14798;DHT22;7490;63.708;20.368;2023-07-16T03:12:27;19.10;99.90
14798;DHT22;7490;63.708;20.368;2023-07-16T03:14:52;19.10;99.90
14798;DHT22;7490;63.708;20.368;2023-07-16T03:17:20;19.20;99.90
14798;DHT22;7490;63.708;20.368;2023-07-16T03:19:47;19.20;99.90
14798;DHT22;7490;63.708;20.368;2023-07-16T03:22:13;19.20;99.90
14798;DHT22;7490;63.708;20.368;2023-07-16T03:24:39;19.20;99.90
14798;DHT22;7490;63.708;20.368;2023-07-16T03:27:05;19.10;99.90
14798;DHT22;7490;63.708;20.368;2023-07-16T03:29:35;19.10;99.90
14798;DHT22;7490;63.708;20.368;2023-07-16T03:32:01;19.10;99.90
14798;DHT22;7490;63.708;20.368;2023-07-16T03:34:27;19.00;99.90
14798;DHT22;7490;63.708;20.368;2023-07-16T03:36:53;19.00;99.90
14798;DHT22;7490;63.708;20.368;2023-07-16T03:39:18;19.00;99.90
14798;DHT22;7490;63.708;20.368;2023-07-16T03:41:44;19.00;99.90
14798;DHT22;7490;63.708;20.368;2023-07-16T03:44:10;19.00;99.90
14798;DHT22;7490;63.708;20.368;2023-07-16T03:46:35;19.00;99.90
14798;DHT22;7490;63.708;20.368;2023-07-16T03:49:01;19.00;99.90
14798;DHT22;7490;63.708;20.368;2023-07-16T03:51:27;19.00;99.90
14798;DHT22;7490;63.708;20.368;2023-07-16T03:53:53;18.90;99.90
14798;DHT22;7490;63.708;20.368;2023-07-16T03:56:18;18.90;99.90
14798;DHT22;7490;63.708;20.368;2023-07-16T03:58:44;18.90;99.90
14798;DHT22;7490;63.708;20.368;2023-07-16T04:01:10;18.90;99.90
14798;DHT22;7490;63.708;20.368;2023-07-16T04:03:35;18.90;99.90
14798;DHT22;7490;63.708;20.368;2023-07-16T04:06:03;18.90;99.90
14798;DHT22;7490;63.708;20.368;2023-07-16T04:08:28;19.00;99.90
14798;DHT22;7490;63.708;20.368;2023-07-16T04:10:54;19.00;99.90
14798;DHT22;7490;63.708;20.368;2023-07-16T04:13:20;19.10;99.90
14798;DHT22;7490;63.708;20.368;2023-07-16T04:15:45;19.10;99.90
14798;DHT22;7490;63.708;20.368;2023-07-16T04:18:11;19.10;99.90
14798;DHT22;7490;63.708;20.368;2023-07-16T04:20:36;19.20;99.90
14798;DHT22;7490;63.708;20.368;2023-07-16T04:23:02;19.20;99.90
14798;DHT22;7490;63.708;20.368;2023-07-16T04:25:28;19.20;99.90
14798;DHT22;7490;63.708;20.368;2023-07-16T04:27:53;19.20;99.90
14798;DHT22;7490;63.708;20.368;2023-07-16T04:30:19;19.30;99.90
14798;DHT22;7490;63.708;20.368;2023-07-16T04:32:45;19.40;99.90
14798;DHT22;7490;63.708;20.368;2023-07-16T04:35:11;19.50;99.90
14798;DHT22;7490;63.708;20.368;2023-07-16T04:37:36;19.60;99.90
14798;DHT22;7490;63.708;20.368;2023-07-16T04:40:02;19.60;99.90
14798;DHT22;7490;63.708;20.368;2023-07-16T04:42:29;19.60;99.90
14798;DHT22;7490;63.708;20.368;2023-07-16T04:44:55;19.70;99.90
14798;DHT22;7490;63.708;20.368;2023-07-16T04:47:21;19.60;99.90
14798;DHT22;7490;63.708;20.368;2023-07-16T04:49:46;19.60;99.90
14798;DHT22;7490;63.708;20.368;2023-07-16T04:52:13;19.60;99.90
14798;DHT22;7490;63.708;20.368;2023-07-16T04:54:39;19.50;99.90
14798;DHT22;7490;63.708;20.368;2023-07-16T04:57:06;19.50;99.90
14798;DHT22;7490;63.708;20.368;2023-07-16T04:59:32;19.50;99.90
14798;DHT22;7490;63.708;20.368;2023-07-16T05:01:58;19.50;99.90
14798;DHT22;7490;63.708;20.368;2023-07-16T05:04:23;19.60;99.90
14798;DHT22;7490;63.708;20.368;2023-07-16T05:06:49;19.70;99.90
14798;DHT22;7490;63.708;20.368;2023-07-16T05:09:15;20.10;99.90
14798;DHT22;7490;63.708;20.368;2023-07-16T05:11:40;20.90;99.90
14798;DHT22;7490;63.708;20.368;2023-07-16T05:14:06;22.00;99.90
14798;DHT22;7490;63.708;20.368;2023-07-16T05:16:32;23.00;99.90
14798;DHT22;7490;63.708;20.368;2023-07-16T05:18:57;23.70;99.90
14798;DHT22;7490;63.708;20.368;2023-07-16T05:21:23;24.30;99.90
14798;DHT22;7490;63.708;20.368;2023-07-16T05:23:49;25.10;99.70
14798;DHT22;7490;63.708;20.368;2023-07-16T05:26:14;25.80;96.70
14798;DHT22;7490;63.708;20.368;2023-07-16T05:28:40;26.20;94.30
14798;DHT22;7490;63.708;20.368;2023-07-16T05:31:06;26.50;92.70
14798;DHT22;7490;63.708;20.368;2023-07-16T05:33:31;26.90;91.00
14798;DHT22;7490;63.708;20.368;2023-07-16T05:35:57;26.90;89.20
14798;DHT22;7490;63.708;20.368;2023-07-16T05:38:23;26.60;88.10
14798;DHT22;7490;63.708;20.368;2023-07-16T05:40:49;26.30;88.50
14798;DHT22;7490;63.708;20.368;2023-07-16T05:43:14;26.00;88.30
14798;DHT22;7490;63.708;20.368;2023-07-16T05:45:40;25.70;88.80
14798;DHT22;7490;63.708;20.368;2023-07-16T05:48:06;25.70;89.20
14798;DHT22;7490;63.708;20.368;2023-07-16T05:50:31;25.50;87.90
14798;DHT22;7490;63.708;20.368;2023-07-16T05:52:57;25.00;88.20
14798;DHT22;7490;63.708;20.368;2023-07-16T05:55:23;24.50;89.50
14798;DHT22;7490;63.708;20.368;2023-07-16T05:57:50;24.00;90.60
14798;DHT22;7490;63.708;20.368;2023-07-16T06:00:16;23.60;91.40
14798;DHT22;7490;63.708;20.368;2023-07-16T06:02:42;23.20;92.20
14798;DHT22;7490;63.708;20.368;2023-07-16T06:05:08;23.10;92.80
14798;DHT22;7490;63.708;20.368;2023-07-16T06:07:34;23.00;93.20
14798;DHT22;7490;63.708;20.368;2023-07-16T06:10:00;22.80;93.50
14798;DHT22;7490;63.708;20.368;2023-07-16T06:12:25;22.70;94.10
14798;DHT22;7490;63.708;20.368;2023-07-16T06:14:51;22.70;94.30
14798;DHT22;7490;63.708;20.368;2023-07-16T06:17:17;22.60;94.50
14798;DHT22;7490;63.708;20.368;2023-07-16T06:19:43;22.50;94.70
14798;DHT22;7490;63.708;20.368;2023-07-16T06:22:08;22.30;95.00
14798;DHT22;7490;63.708;20.368;2023-07-16T06:24:34;22.00;95.60
14798;DHT22;7490;63.708;20.368;2023-07-16T06:27:00;21.80;96.10
14798;DHT22;7490;63.708;20.368;2023-07-16T06:29:26;21.60;96.80
14798;DHT22;7490;63.708;20.368;2023-07-16T06:31:55;21.60;97.50
14798;DHT22;7490;63.708;20.368;2023-07-16T06:34:25;21.70;97.80
14798;DHT22;7490;63.708;20.368;2023-07-16T06:36:51;22.00;97.90
14798;DHT22;7490;63.708;20.368;2023-07-16T06:39:17;22.40;97.30
14798;DHT22;7490;63.708;20.368;2023-07-16T06:41:43;22.60;96.70
14798;DHT22;7490;63.708;20.368;2023-07-16T06:44:08;23.00;96.00
14798;DHT22;7490;63.708;20.368;2023-07-16T06:46:34;23.00;95.20
14798;DHT22;7490;63.708;20.368;2023-07-16T06:48:59;22.90;95.10
14798;DHT22;7490;63.708;20.368;2023-07-16T06:51:25;22.70;95.10
14798;DHT22;7490;63.708;20.368;2023-07-16T06:53:51;22.60;95.50
14798;DHT22;7490;63.708;20.368;2023-07-16T06:56:16;22.50;95.90
14798;DHT22;7490;63.708;20.368;2023-07-16T06:58:42;22.60;96.10
14798;DHT22;7490;63.708;20.368;2023-07-16T07:01:08;22.70;95.70
14798;DHT22;7490;63.708;20.368;2023-07-16T07:03:33;22.80;95.60
14798;DHT22;7490;63.708;20.368;2023-07-16T07:06:02;22.90;95.50
14798;DHT22;7490;63.708;20.368;2023-07-16T07:08:29;23.00;95.40
14798;DHT22;7490;63.708;20.368;2023-07-16T07:10:55;23.50;95.00
14798;DHT22;7490;63.708;20.368;2023-07-16T07:13:21;24.00;94.10
14798;DHT22;7490;63.708;20.368;2023-07-16T07:15:47;24.20;93.20
14798;DHT22;7490;63.708;20.368;2023-07-16T07:18:13;24.40;92.50
14798;DHT22;7490;63.708;20.368;2023-07-16T07:20:40;24.50;92.30
14798;DHT22;7490;63.708;20.368;2023-07-16T07:23:06;24.40;91.70
14798;DHT22;7490;63.708;20.368;2023-07-16T07:25:32;24.00;91.50
14798;DHT22;7490;63.708;20.368;2023-07-16T07:27:57;23.50;92.10
14798;DHT22;7490;63.708;20.368;2023-07-16T07:30:23;23.00;92.90
14798;DHT22;7490;63.708;20.368;2023-07-16T07:32:49;22.60;93.60
14798;DHT22;7490;63.708;20.368;2023-07-16T07:35:14;22.30;94.50
14798;DHT22;7490;63.708;20.368;2023-07-16T07:37:40;22.00;95.00
14798;DHT22;7490;63.708;20.368;2023-07-16T07:40:06;21.70;95.70
14798;DHT22;7490;63.708;20.368;2023-07-16T07:42:33;21.60;96.40
14798;DHT22;7490;63.708;20.368;2023-07-16T07:44:58;21.50;96.80
14798;DHT22;7490;63.708;20.368;2023-07-16T07:47:24;21.50;97.10
14798;DHT22;7490;63.708;20.368;2023-07-16T07:49:52;21.50;97.20
14798;DHT22;7490;63.708;20.368;2023-07-16T07:52:17;21.40;97.50
14798;DHT22;7490;63.708;20.368;2023-07-16T07:54:43;21.40;97.70
14798;DHT22;7490;63.708;20.368;2023-07-16T07:57:09;21.50;98.00
14798;DHT22;7490;63.708;20.368;2023-07-16T07:59:34;21.60;97.60
14798;DHT22;7490;63.708;20.368;2023-07-16T08:02:00;21.60;97.50
14798;DHT22;7490;63.708;20.368;2023-07-16T08:04:27;21.60;97.50
14798;DHT22;7490;63.708;20.368;2023-07-16T08:06:54;21.60;97.50
14798;DHT22;7490;63.708;20.368;2023-07-16T08:09:20;21.50;97.50
14798;DHT22;7490;63.708;20.368;2023-07-16T08:11:45;21.50;97.60
14798;DHT22;7490;63.708;20.368;2023-07-16T08:14:11;21.40;97.50
14798;DHT22;7490;63.708;20.368;2023-07-16T08:16:37;21.40;97.60
14798;DHT22;7490;63.708;20.368;2023-07-16T08:19:02;21.30;97.60
14798;DHT22;7490;63.708;20.368;2023-07-16T08:21:28;21.10;97.50
14798;DHT22;7490;63.708;20.368;2023-07-16T08:23:54;20.90;97.50
14798;DHT22;7490;63.708;20.368;2023-07-16T08:26:19;20.80;97.80
14798;DHT22;7490;63.708;20.368;2023-07-16T08:28:45;20.70;98.00
14798;DHT22;7490;63.708;20.368;2023-07-16T08:31:11;20.70;97.90
14798;DHT22;7490;63.708;20.368;2023-07-16T08:33:38;20.80;97.90
14798;DHT22;7490;63.708;20.368;2023-07-16T08:36:04;20.90;97.40
14798;DHT22;7490;63.708;20.368;2023-07-16T08:38:30;20.90;96.90
14798;DHT22;7490;63.708;20.368;2023-07-16T08:40:55;20.80;96.70
14798;DHT22;7490;63.708;20.368;2023-07-16T08:43:22;20.70;96.60
14798;DHT22;7490;63.708;20.368;2023-07-16T08:45:49;20.70;96.60
14798;DHT22;7490;63.708;20.368;2023-07-16T08:48:16;20.60;96.50
14798;DHT22;7490;63.708;20.368;2023-07-16T08:50:47;20.40;96.10
14798;DHT22;7490;63.708;20.368;2023-07-16T08:53:14;20.30;96.10
14798;DHT22;7490;63.708;20.368;2023-07-16T08:55:40;20.20;96.00
14798;DHT22;7490;63.708;20.368;2023-07-16T08:58:06;20.10;95.90
14798;DHT22;7490;63.708;20.368;2023-07-16T09:00:33;20.00;95.90
14798;DHT22;7490;63.708;20.368;2023-07-16T09:02:59;19.90;96.00
14798;DHT22;7490;63.708;20.368;2023-07-16T09:05:25;19.90;96.20
14798;DHT22;7490;63.708;20.368;2023-07-16T09:07:51;19.80;96.30
14798;DHT22;7490;63.708;20.368;2023-07-16T09:10:17;19.80;96.70
14798;DHT22;7490;63.708;20.368;2023-07-16T09:12:44;19.80;97.00
14798;DHT22;7490;63.708;20.368;2023-07-16T09:15:11;19.80;97.10
14798;DHT22;7490;63.708;20.368;2023-07-16T09:17:37;19.80;97.40
14798;DHT22;7490;63.708;20.368;2023-07-16T09:20:04;19.70;97.50
14798;DHT22;7490;63.708;20.368;2023-07-16T09:22:33;19.70;97.70
14798;DHT22;7490;63.708;20.368;2023-07-16T09:25:00;19.60;97.70
14798;DHT22;7490;63.708;20.368;2023-07-16T09:27:31;19.60;97.90
14798;DHT22;7490;63.708;20.368;2023-07-16T09:29:57;19.60;98.10
14798;DHT22;7490;63.708;20.368;2023-07-16T09:32:38;19.60;98.20
14798;DHT22;7490;63.708;20.368;2023-07-16T09:35:16;19.70;98.40
14798;DHT22;7490;63.708;20.368;2023-07-16T09:37:43;19.70;98.50
14798;DHT22;7490;63.708;20.368;2023-07-16T09:40:10;19.60;98.90
14798;DHT22;7490;63.708;20.368;2023-07-16T09:42:43;19.60;99.30
14798;DHT22;7490;63.708;20.368;2023-07-16T09:45:17;19.50;99.70
14798;DHT22;7490;63.708;20.368;2023-07-16T09:47:44;19.40;99.90
14798;DHT22;7490;63.708;20.368;2023-07-16T09:50:10;19.40;99.90
14798;DHT22;7490;63.708;20.368;2023-07-16T09:52:38;19.40;99.90
14798;DHT22;7490;63.708;20.368;2023-07-16T09:55:08;19.40;99.90
14798;DHT22;7490;63.708;20.368;2023-07-16T09:57:37;19.40;99.70
14798;DHT22;7490;63.708;20.368;2023-07-16T10:00:09;19.40;99.40
14798;DHT22;7490;63.708;20.368;2023-07-16T10:02:38;19.50;99.10
14798;DHT22;7490;63.708;20.368;2023-07-16T10:07:42;19.50;98.70
14798;DHT22;7490;63.708;20.368;2023-07-16T10:10:09;19.50;98.60
14798;DHT22;7490;63.708;20.368;2023-07-16T10:12:36;19.50;98.20
14798;DHT22;7490;63.708;20.368;2023-07-16T10:15:02;19.50;98.00
14798;DHT22;7490;63.708;20.368;2023-07-16T10:17:31;19.50;97.80
14798;DHT22;7490;63.708;20.368;2023-07-16T10:19:58;19.60;97.60
14798;DHT22;7490;63.708;20.368;2023-07-16T10:22:51;19.60;97.40
14798;DHT22;7490;63.708;20.368;2023-07-16T10:27:50;19.60;97.10
14798;DHT22;7490;63.708;20.368;2023-07-16T10:30:16;19.60;97.00
14798;DHT22;7490;63.708;20.368;2023-07-16T10:32:42;19.60;96.80
14798;DHT22;7490;63.708;20.368;2023-07-16T10:35:09;19.60;96.80
14798;DHT22;7490;63.708;20.368;2023-07-16T10:37:35;19.60;96.70
14798;DHT22;7490;63.708;20.368;2023-07-16T10:40:02;19.60;96.60
14798;DHT22;7490;63.708;20.368;2023-07-16T10:42:31;19.60;96.50
14798;DHT22;7490;63.708;20.368;2023-07-16T10:45:03;19.70;96.50
14798;DHT22;7490;63.708;20.368;2023-07-16T10:47:34;19.70;96.50
14798;DHT22;7490;63.708;20.368;2023-07-16T10:50:03;19.80;96.50
14798;DHT22;7490;63.708;20.368;2023-07-16T10:52:29;19.80;96.50
14798;DHT22;7490;63.708;20.368;2023-07-16T10:54:55;19.90;96.50
14798;DHT22;7490;63.708;20.368;2023-07-16T10:57:21;19.90;96.40
14798;DHT22;7490;63.708;20.368;2023-07-16T10:59:48;20.00;96.40
14798;DHT22;7490;63.708;20.368;2023-07-16T11:02:16;20.00;96.60
14798;DHT22;7490;63.708;20.368;2023-07-16T11:04:46;20.00;96.90
14798;DHT22;7490;63.708;20.368;2023-07-16T11:07:13;19.90;97.40
14798;DHT22;7490;63.708;20.368;2023-07-16T11:09:43;19.70;97.40
14798;DHT22;7490;63.708;20.368;2023-07-16T11:12:12;19.50;97.90
14798;DHT22;7490;63.708;20.368;2023-07-16T11:14:49;19.30;98.80
14798;DHT22;7490;63.708;20.368;2023-07-16T11:17:15;19.10;99.50
14798;DHT22;7490;63.708;20.368;2023-07-16T11:19:45;18.90;99.90
14798;DHT22;7490;63.708;20.368;2023-07-16T11:22:11;18.80;99.90
14798;DHT22;7490;63.708;20.368;2023-07-16T11:24:38;18.60;99.90
14798;DHT22;7490;63.708;20.368;2023-07-16T11:27:05;18.50;99.90
14798;DHT22;7490;63.708;20.368;2023-07-16T11:29:34;18.50;99.90
14798;DHT22;7490;63.708;20.368;2023-07-16T11:32:01;18.50;99.90
14798;DHT22;7490;63.708;20.368;2023-07-16T11:34:27;18.50;99.90
14798;DHT22;7490;63.708;20.368;2023-07-16T11:36:53;18.50;99.90
14798;DHT22;7490;63.708;20.368;2023-07-16T11:39:19;18.50;99.90
14798;DHT22;7490;63.708;20.368;2023-07-16T11:41:58;18.40;99.90
14798;DHT22;7490;63.708;20.368;2023-07-16T11:44:23;18.50;99.90
14798;DHT22;7490;63.708;20.368;2023-07-16T11:46:50;18.40;99.90
14798;DHT22;7490;63.708;20.368;2023-07-16T11:49:15;18.40;99.90
14798;DHT22;7490;63.708;20.368;2023-07-16T11:51:41;18.40;99.90
14798;DHT22;7490;63.708;20.368;2023-07-16T11:54:10;18.40;99.90
14798;DHT22;7490;63.708;20.368;2023-07-16T11:56:35;18.30;99.90
14798;DHT22;7490;63.708;20.368;2023-07-16T11:59:01;18.20;99.90
14798;DHT22;7490;63.708;20.368;2023-07-16T12:01:27;18.20;99.90
14798;DHT22;7490;63.708;20.368;2023-07-16T12:03:53;18.10;99.90
14798;DHT22;7490;63.708;20.368;2023-07-16T12:06:18;17.90;99.90
14798;DHT22;7490;63.708;20.368;2023-07-16T12:08:44;17.70;99.90
14798;DHT22;7490;63.708;20.368;2023-07-16T12:11:10;17.60;99.90
14798;DHT22;7490;63.708;20.368;2023-07-16T12:13:35;17.40;99.90
14798;DHT22;7490;63.708;20.368;2023-07-16T12:16:01;17.30;99.90
14798;DHT22;7490;63.708;20.368;2023-07-16T12:18:27;17.20;99.90
14798;DHT22;7490;63.708;20.368;2023-07-16T12:20:53;17.00;99.90
14798;DHT22;7490;63.708;20.368;2023-07-16T12:23:19;16.80;99.90
14798;DHT22;7490;63.708;20.368;2023-07-16T12:25:45;16.60;99.90
14798;DHT22;7490;63.708;20.368;2023-07-16T12:28:10;16.50;99.90
14798;DHT22;7490;63.708;20.368;2023-07-16T12:30:37;16.30;99.90
14798;DHT22;7490;63.708;20.368;2023-07-16T12:33:03;16.20;99.90
14798;DHT22;7490;63.708;20.368;2023-07-16T12:35:29;16.20;99.90
14798;DHT22;7490;63.708;20.368;2023-07-16T12:37:55;16.20;99.90
14798;DHT22;7490;63.708;20.368;2023-07-16T12:40:24;16.20;99.90
14798;DHT22;7490;63.708;20.368;2023-07-16T12:42:53;16.20;99.90
14798;DHT22;7490;63.708;20.368;2023-07-16T12:45:22;16.20;99.90
14798;DHT22;7490;63.708;20.368;2023-07-16T12:47:50;16.20;99.90
14798;DHT22;7490;63.708;20.368;2023-07-16T12:50:17;16.10;99.90
14798;DHT22;7490;63.708;20.368;2023-07-16T12:52:43;16.10;99.90
14798;DHT22;7490;63.708;20.368;2023-07-16T12:55:08;16.00;99.90
14798;DHT22;7490;63.708;20.368;2023-07-16T12:57:34;16.00;99.90
14798;DHT22;7490;63.708;20.368;2023-07-16T13:00:00;16.00;99.90
14798;DHT22;7490;63.708;20.368;2023-07-16T13:02:27;16.00;99.90
14798;DHT22;7490;63.708;20.368;2023-07-16T13:04:52;16.00;99.90
14798;DHT22;7490;63.708;20.368;2023-07-16T13:07:18;16.00;99.90
14798;DHT22;7490;63.708;20.368;2023-07-16T13:09:43;16.00;99.90
14798;DHT22;7490;63.708;20.368;2023-07-16T13:12:09;16.00;99.90
14798;DHT22;7490;63.708;20.368;2023-07-16T13:14:35;16.00;99.90
14798;DHT22;7490;63.708;20.368;2023-07-16T13:17:00;16.10;99.90
14798;DHT22;7490;63.708;20.368;2023-07-16T13:19:26;16.10;99.90
14798;DHT22;7490;63.708;20.368;2023-07-16T13:21:52;16.20;99.90
14798;DHT22;7490;63.708;20.368;2023-07-16T13:24:18;16.30;99.90
14798;DHT22;7490;63.708;20.368;2023-07-16T13:26:43;16.30;99.90
14798;DHT22;7490;63.708;20.368;2023-07-16T13:29:09;16.40;99.90
14798;DHT22;7490;63.708;20.368;2023-07-16T13:31:35;16.40;99.90
14798;DHT22;7490;63.708;20.368;2023-07-16T13:34:00;16.40;99.90
14798;DHT22;7490;63.708;20.368;2023-07-16T13:36:26;16.40;99.90
14798;DHT22;7490;63.708;20.368;2023-07-16T13:38:52;16.30;99.90
14798;DHT22;7490;63.708;20.368;2023-07-16T13:41:18;16.30;99.90
14798;DHT22;7490;63.708;20.368;2023-07-16T13:43:43;16.20;99.90
14798;DHT22;7490;63.708;20.368;2023-07-16T13:46:09;16.20;99.90
14798;DHT22;7490;63.708;20.368;2023-07-16T13:48:34;16.10;99.90
14798;DHT22;7490;63.708;20.368;2023-07-16T13:51:00;16.10;99.90
14798;DHT22;7490;63.708;20.368;2023-07-16T13:53:26;16.10;99.90
14798;DHT22;7490;63.708;20.368;2023-07-16T13:55:51;16.00;99.90
14798;DHT22;7490;63.708;20.368;2023-07-16T13:58:18;16.00;99.90
14798;DHT22;7490;63.708;20.368;2023-07-16T14:00:45;16.00;99.90
14798;DHT22;7490;63.708;20.368;2023-07-16T14:03:11;16.00;99.90
14798;DHT22;7490;63.708;20.368;2023-07-16T14:05:36;16.00;99.90
14798;DHT22;7490;63.708;20.368;2023-07-16T14:08:05;16.00;99.90
14798;DHT22;7490;63.708;20.368;2023-07-16T14:10:30;16.10;99.90
14798;DHT22;7490;63.708;20.368;2023-07-16T14:12:56;16.10;99.90
14798;DHT22;7490;63.708;20.368;2023-07-16T14:15:22;16.10;99.90
14798;DHT22;7490;63.708;20.368;2023-07-16T14:17:48;16.20;99.90
14798;DHT22;7490;63.708;20.368;2023-07-16T14:20:14;16.30;99.90
14798;DHT22;7490;63.708;20.368;2023-07-16T14:22:40;16.40;99.90
14798;DHT22;7490;63.708;20.368;2023-07-16T14:25:06;16.50;99.90
14798;DHT22;7490;63.708;20.368;2023-07-16T14:27:32;16.60;99.90
14798;DHT22;7490;63.708;20.368;2023-07-16T14:29:58;16.60;99.90
14798;DHT22;7490;63.708;20.368;2023-07-16T14:32:24;16.50;99.90
14798;DHT22;7490;63.708;20.368;2023-07-16T14:34:50;16.50;99.90
14798;DHT22;7490;63.708;20.368;2023-07-16T14:37:15;16.50;99.90
14798;DHT22;7490;63.708;20.368;2023-07-16T14:39:41;16.50;99.90
14798;DHT22;7490;63.708;20.368;2023-07-16T14:42:07;16.40;99.90
14798;DHT22;7490;63.708;20.368;2023-07-16T14:44:33;16.40;99.90
14798;DHT22;7490;63.708;20.368;2023-07-16T14:46:58;16.40;99.90
14798;DHT22;7490;63.708;20.368;2023-07-16T14:49:24;16.40;99.90
14798;DHT22;7490;63.708;20.368;2023-07-16T14:51:49;16.50;99.90
14798;DHT22;7490;63.708;20.368;2023-07-16T14:54:15;16.50;99.90
14798;DHT22;7490;63.708;20.368;2023-07-16T14:56:41;16.60;99.90
14798;DHT22;7490;63.708;20.368;2023-07-16T14:59:06;16.60;99.90
14798;DHT22;7490;63.708;20.368;2023-07-16T15:01:32;16.60;99.90
14798;DHT22;7490;63.708;20.368;2023-07-16T15:03:58;16.50;99.90
14798;DHT22;7490;63.708;20.368;2023-07-16T15:06:24;16.50;99.90
14798;DHT22;7490;63.708;20.368;2023-07-16T15:08:50;16.40;99.90
14798;DHT22;7490;63.708;20.368;2023-07-16T15:11:17;16.40;99.90
14798;DHT22;7490;63.708;20.368;2023-07-16T15:13:43;16.40;99.90
14798;DHT22;7490;63.708;20.368;2023-07-16T15:16:08;16.40;99.90
14798;DHT22;7490;63.708;20.368;2023-07-16T15:18:36;16.40;99.90
14798;DHT22;7490;63.708;20.368;2023-07-16T15:21:02;16.40;99.90
14798;DHT22;7490;63.708;20.368;2023-07-16T15:23:28;16.40;99.90
14798;DHT22;7490;63.708;20.368;2023-07-16T15:25:55;16.40;99.90
14798;DHT22;7490;63.708;20.368;2023-07-16T15:28:21;16.50;99.90
14798;DHT22;7490;63.708;20.368;2023-07-16T15:30:48;16.60;99.90
14798;DHT22;7490;63.708;20.368;2023-07-16T15:33:13;16.60;99.90
14798;DHT22;7490;63.708;20.368;2023-07-16T15:35:39;16.70;99.90
14798;DHT22;7490;63.708;20.368;2023-07-16T15:38:05;16.70;99.90